sensor_id;sensor_type;location;lat;lon;timestamp;temperature;humidity
20504;DHT22;10410;51.046;6.980;2023-07-16T00:00:47;20.60;99.90
20504;DHT22;10410;51.046;6.980;2023-07-16T00:07:49;20.50;99.90
20504;DHT22;10410;51.046;6.980;2023-07-16T00:14:50;20.50;99.90
20504;DHT22;10410;51.046;6.980;2023-07-16T00:21:50;20.50;99.90
20504;DHT22;10410;51.046;6.980;2023-07-16T00:28:51;20.40;99.90
20504;DHT22;10410;51.046;6.980;2023-07-16T00:35:51;20.40;99.90
20504;DHT22;10410;51.046;6.980;2023-07-16T00:42:51;20.30;99.90
20504;DHT22;10410;51.046;6.980;2023-07-16T00:49:52;20.30;99.90
20504;DHT22;10410;51.046;6.980;2023-07-16T00:56:53;20.10;99.90
20504;DHT22;10410;51.046;6.980;2023-07-16T01:03:54;20.00;99.90
20504;DHT22;10410;51.046;6.980;2023-07-16T01:10:54;19.90;99.90
20504;DHT22;10410;51.046;6.980;2023-07-16T01:17:55;19.70;99.90
20504;DHT22;10410;51.046;6.980;2023-07-16T01:25:22;19.60;99.90
20504;DHT22;10410;51.046;6.980;2023-07-16T01:32:26;19.50;99.90
20504;DHT22;10410;51.046;6.980;2023-07-16T01:39:28;19.40;99.90
20504;DHT22;10410;51.046;6.980;2023-07-16T01:46:29;19.30;99.90
20504;DHT22;10410;51.046;6.980;2023-07-16T01:53:30;19.30;99.90
20504;DHT22;10410;51.046;6.980;2023-07-16T02:00:32;19.20;99.90
20504;DHT22;10410;51.046;6.980;2023-07-16T02:07:32;19.10;99.90
20504;DHT22;10410;51.046;6.980;2023-07-16T02:14:33;19.10;99.90
20504;DHT22;10410;51.046;6.980;2023-07-16T02:21:33;19.00;99.90
20504;DHT22;10410;51.046;6.980;2023-07-16T02:28:34;19.00;99.90
20504;DHT22;10410;51.046;6.980;2023-07-16T02:35:34;18.90;99.90
20504;DHT22;10410;51.046;6.980;2023-07-16T02:42:35;18.90;99.90
20504;DHT22;10410;51.046;6.980;2023-07-16T02:49:35;18.80;99.90
20504;DHT22;10410;51.046;6.980;2023-07-16T02:56:37;18.70;99.90
20504;DHT22;10410;51.046;6.980;2023-07-16T03:03:38;18.60;99.90
20504;DHT22;10410;51.046;6.980;2023-07-16T03:10:38;18.50;99.90
20504;DHT22;10410;51.046;6.980;2023-07-16T03:17:39;18.50;99.90
20504;DHT22;10410;51.046;6.980;2023-07-16T03:24:39;18.40;99.90
20504;DHT22;10410;51.046;6.980;2023-07-16T03:31:39;18.30;99.90
20504;DHT22;10410;51.046;6.980;2023-07-16T03:38:41;18.30;99.90
20504;DHT22;10410;51.046;6.980;2023-07-16T03:45:42;18.20;99.90
20504;DHT22;10410;51.046;6.980;2023-07-16T03:52:43;18.20;99.90
20504;DHT22;10410;51.046;6.980;2023-07-16T03:59:44;18.10;99.90
20504;DHT22;10410;51.046;6.980;2023-07-16T04:06:44;18.10;99.90
20504;DHT22;10410;51.046;6.980;2023-07-16T04:13:44;18.10;99.90
20504;DHT22;10410;51.046;6.980;2023-07-16T04:20:45;18.00;99.90
20504;DHT22;10410;51.046;6.980;2023-07-16T04:27:45;18.00;99.90
20504;DHT22;10410;51.046;6.980;2023-07-16T04:34:46;18.10;99.90
20504;DHT22;10410;51.046;6.980;2023-07-16T04:41:46;18.10;99.90
20504;DHT22;10410;51.046;6.980;2023-07-16T04:48:47;18.10;99.90
20504;DHT22;10410;51.046;6.980;2023-07-16T04:55:47;18.20;99.90
20504;DHT22;10410;51.046;6.980;2023-07-16T05:02:48;18.30;99.90
20504;DHT22;10410;51.046;6.980;2023-07-16T05:09:48;18.50;99.90
20504;DHT22;10410;51.046;6.980;2023-07-16T05:16:48;18.50;99.90
20504;DHT22;10410;51.046;6.980;2023-07-16T05:23:48;18.50;99.90
20504;DHT22;10410;51.046;6.980;2023-07-16T05:30:58;18.50;99.90
20504;DHT22;10410;51.046;6.980;2023-07-16T05:37:58;18.60;99.90
20504;DHT22;10410;51.046;6.980;2023-07-16T05:44:58;18.60;99.90
20504;DHT22;10410;51.046;6.980;2023-07-16T05:51:58;18.70;99.90
20504;DHT22;10410;51.046;6.980;2023-07-16T05:58:59;18.80;99.90
20504;DHT22;10410;51.046;6.980;2023-07-16T06:05:59;18.90;99.90
20504;DHT22;10410;51.046;6.980;2023-07-16T06:12:59;19.00;99.90
20504;DHT22;10410;51.046;6.980;2023-07-16T06:20:00;19.20;99.90
20504;DHT22;10410;51.046;6.980;2023-07-16T06:27:01;19.40;99.90
20504;DHT22;10410;51.046;6.980;2023-07-16T06:34:01;19.40;99.90
20504;DHT22;10410;51.046;6.980;2023-07-16T06:41:01;19.50;99.90
20504;DHT22;10410;51.046;6.980;2023-07-16T06:48:02;19.60;99.90
20504;DHT22;10410;51.046;6.980;2023-07-16T06:55:03;19.60;99.90
20504;DHT22;10410;51.046;6.980;2023-07-16T07:02:03;19.70;99.90
20504;DHT22;10410;51.046;6.980;2023-07-16T07:09:04;19.80;99.90
20504;DHT22;10410;51.046;6.980;2023-07-16T07:16:05;19.90;99.90
20504;DHT22;10410;51.046;6.980;2023-07-16T07:23:05;20.10;99.90
20504;DHT22;10410;51.046;6.980;2023-07-16T07:30:06;20.20;99.90
20504;DHT22;10410;51.046;6.980;2023-07-16T07:37:07;20.20;99.90
20504;DHT22;10410;51.046;6.980;2023-07-16T07:44:07;20.30;99.90
20504;DHT22;10410;51.046;6.980;2023-07-16T07:51:07;20.20;99.90
20504;DHT22;10410;51.046;6.980;2023-07-16T07:58:08;20.40;99.90
20504;DHT22;10410;51.046;6.980;2023-07-16T08:05:09;20.50;99.90
20504;DHT22;10410;51.046;6.980;2023-07-16T08:12:09;20.60;99.90
20504;DHT22;10410;51.046;6.980;2023-07-16T08:19:12;20.70;99.90
20504;DHT22;10410;51.046;6.980;2023-07-16T08:26:13;20.90;99.90
20504;DHT22;10410;51.046;6.980;2023-07-16T08:33:14;20.90;99.90
20504;DHT22;10410;51.046;6.980;2023-07-16T08:40:15;20.90;99.90
20504;DHT22;10410;51.046;6.980;2023-07-16T08:47:16;21.00;99.90
20504;DHT22;10410;51.046;6.980;2023-07-16T08:54:16;21.20;99.60
20504;DHT22;10410;51.046;6.980;2023-07-16T09:01:17;21.40;99.80
20504;DHT22;10410;51.046;6.980;2023-07-16T09:08:23;21.70;99.20
20504;DHT22;10410;51.046;6.980;2023-07-16T09:15:29;22.00;99.10
20504;DHT22;10410;51.046;6.980;2023-07-16T09:22:30;22.20;97.40
20504;DHT22;10410;51.046;6.980;2023-07-16T09:29:30;22.50;97.50
20504;DHT22;10410;51.046;6.980;2023-07-16T09:36:31;22.60;97.00
20504;DHT22;10410;51.046;6.980;2023-07-16T09:43:33;22.80;95.90
20504;DHT22;10410;51.046;6.980;2023-07-16T09:50:35;22.80;95.60
20504;DHT22;10410;51.046;6.980;2023-07-16T09:57:40;22.80;95.70
20504;DHT22;10410;51.046;6.980;2023-07-16T10:04:41;22.90;95.50
20504;DHT22;10410;51.046;6.980;2023-07-16T10:11:42;23.20;94.70
20504;DHT22;10410;51.046;6.980;2023-07-16T10:18:50;23.20;94.70
20504;DHT22;10410;51.046;6.980;2023-07-16T10:26:00;23.00;94.20
20504;DHT22;10410;51.046;6.980;2023-07-16T10:33:11;23.00;94.20
20504;DHT22;10410;51.046;6.980;2023-07-16T10:40:14;23.10;94.10
20504;DHT22;10410;51.046;6.980;2023-07-16T10:54:25;23.50;94.20
20504;DHT22;10410;51.046;6.980;2023-07-16T11:01:29;23.60;93.10
20504;DHT22;10410;51.046;6.980;2023-07-16T11:08:30;23.40;92.90
20504;DHT22;10410;51.046;6.980;2023-07-16T11:15:32;23.40;93.20
20504;DHT22;10410;51.046;6.980;2023-07-16T11:22:37;23.40;93.10
20504;DHT22;10410;51.046;6.980;2023-07-16T11:29:37;23.60;92.90
20504;DHT22;10410;51.046;6.980;2023-07-16T11:36:38;23.80;92.40
20504;DHT22;10410;51.046;6.980;2023-07-16T11:43:40;23.80;92.40
20504;DHT22;10410;51.046;6.980;2023-07-16T11:50:41;24.10;91.90
20504;DHT22;10410;51.046;6.980;2023-07-16T11:57:42;24.10;91.70
20504;DHT22;10410;51.046;6.980;2023-07-16T12:04:43;24.30;91.80
20504;DHT22;10410;51.046;6.980;2023-07-16T12:11:43;24.70;91.20
20504;DHT22;10410;51.046;6.980;2023-07-16T12:18:44;24.80;90.90
20504;DHT22;10410;51.046;6.980;2023-07-16T12:25:44;24.70;90.10
20504;DHT22;10410;51.046;6.980;2023-07-16T12:32:44;25.00;89.50
20504;DHT22;10410;51.046;6.980;2023-07-16T12:39:45;25.10;89.20
20504;DHT22;10410;51.046;6.980;2023-07-16T12:46:45;24.90;89.30
20504;DHT22;10410;51.046;6.980;2023-07-16T12:53:46;24.90;88.50
20504;DHT22;10410;51.046;6.980;2023-07-16T13:00:47;24.90;88.40
20504;DHT22;10410;51.046;6.980;2023-07-16T13:07:47;25.10;86.20
20504;DHT22;10410;51.046;6.980;2023-07-16T13:14:48;25.10;86.30
20504;DHT22;10410;51.046;6.980;2023-07-16T13:21:48;25.10;85.50
20504;DHT22;10410;51.046;6.980;2023-07-16T13:28:49;25.10;85.50
20504;DHT22;10410;51.046;6.980;2023-07-16T13:35:50;25.40;85.40
20504;DHT22;10410;51.046;6.980;2023-07-16T13:42:50;25.20;83.30
20504;DHT22;10410;51.046;6.980;2023-07-16T13:49:51;25.30;84.20
20504;DHT22;10410;51.046;6.980;2023-07-16T13:56:51;25.40;83.60
20504;DHT22;10410;51.046;6.980;2023-07-16T14:03:51;25.30;84.10
20504;DHT22;10410;51.046;6.980;2023-07-16T14:10:53;25.40;83.30
20504;DHT22;10410;51.046;6.980;2023-07-16T14:17:53;25.50;83.00
20504;DHT22;10410;51.046;6.980;2023-07-16T14:24:54;25.40;82.90
20504;DHT22;10410;51.046;6.980;2023-07-16T14:31:54;25.30;83.20
20504;DHT22;10410;51.046;6.980;2023-07-16T14:38:55;25.30;83.30
20504;DHT22;10410;51.046;6.980;2023-07-16T14:45:56;25.10;82.60
20504;DHT22;10410;51.046;6.980;2023-07-16T14:52:56;25.10;83.00
20504;DHT22;10410;51.046;6.980;2023-07-16T14:59:57;25.30;83.00
20504;DHT22;10410;51.046;6.980;2023-07-16T15:06:57;25.30;81.80
20504;DHT22;10410;51.046;6.980;2023-07-16T15:13:57;25.20;81.70
20504;DHT22;10410;51.046;6.980;2023-07-16T15:20:59;25.10;82.00
20504;DHT22;10410;51.046;6.980;2023-07-16T15:27:59;25.10;81.90
20504;DHT22;10410;51.046;6.980;2023-07-16T15:35:00;25.30;81.70
20504;DHT22;10410;51.046;6.980;2023-07-16T15:42:00;25.50;81.10
20504;DHT22;10410;51.046;6.980;2023-07-16T15:49:00;25.30;81.70
20504;DHT22;10410;51.046;6.980;2023-07-16T15:56:01;25.30;82.00
20504;DHT22;10410;51.046;6.980;2023-07-16T16:03:01;25.20;81.00
20504;DHT22;10410;51.046;6.980;2023-07-16T16:10:03;24.90;81.70
20504;DHT22;10410;51.046;6.980;2023-07-16T16:17:04;24.80;80.50
20504;DHT22;10410;51.046;6.980;2023-07-16T16:24:07;24.70;81.10
20504;DHT22;10410;51.046;6.980;2023-07-16T16:31:08;24.80;81.70
20504;DHT22;10410;51.046;6.980;2023-07-16T16:38:09;25.00;80.40
20504;DHT22;10410;51.046;6.980;2023-07-16T16:45:10;24.80;80.70
20504;DHT22;10410;51.046;6.980;2023-07-16T16:52:11;24.70;80.90
20504;DHT22;10410;51.046;6.980;2023-07-16T16:59:11;24.70;81.00
20504;DHT22;10410;51.046;6.980;2023-07-16T17:06:12;24.70;81.10
20504;DHT22;10410;51.046;6.980;2023-07-16T17:13:13;24.70;81.40
20504;DHT22;10410;51.046;6.980;2023-07-16T17:20:14;24.70;81.70
20504;DHT22;10410;51.046;6.980;2023-07-16T17:27:14;24.80;81.80
20504;DHT22;10410;51.046;6.980;2023-07-16T17:34:16;24.80;81.50
20504;DHT22;10410;51.046;6.980;2023-07-16T17:41:17;24.70;81.80
20504;DHT22;10410;51.046;6.980;2023-07-16T17:48:18;24.70;81.70
20504;DHT22;10410;51.046;6.980;2023-07-16T17:55:19;24.70;82.10
20504;DHT22;10410;51.046;6.980;2023-07-16T18:02:20;24.70;82.20
20504;DHT22;10410;51.046;6.980;2023-07-16T18:09:20;24.60;82.90
20504;DHT22;10410;51.046;6.980;2023-07-16T18:16:20;24.50;82.30
20504;DHT22;10410;51.046;6.980;2023-07-16T18:23:21;24.40;82.20
20504;DHT22;10410;51.046;6.980;2023-07-16T18:30:22;24.20;82.20
20504;DHT22;10410;51.046;6.980;2023-07-16T18:37:23;24.10;82.30
20504;DHT22;10410;51.046;6.980;2023-07-16T18:44:24;24.00;82.30
20504;DHT22;10410;51.046;6.980;2023-07-16T18:51:24;23.90;82.20
20504;DHT22;10410;51.046;6.980;2023-07-16T18:58:24;23.70;81.80
20504;DHT22;10410;51.046;6.980;2023-07-16T19:05:25;23.60;82.30
20504;DHT22;10410;51.046;6.980;2023-07-16T19:12:25;23.50;82.50
20504;DHT22;10410;51.046;6.980;2023-07-16T19:19:26;23.40;82.50
20504;DHT22;10410;51.046;6.980;2023-07-16T19:26:27;23.30;82.70
20504;DHT22;10410;51.046;6.980;2023-07-16T19:33:27;23.30;83.00
20504;DHT22;10410;51.046;6.980;2023-07-16T19:40:28;23.20;83.20
20504;DHT22;10410;51.046;6.980;2023-07-16T19:47:28;23.00;83.50
20504;DHT22;10410;51.046;6.980;2023-07-16T19:54:29;22.90;83.70
20504;DHT22;10410;51.046;6.980;2023-07-16T20:01:29;22.80;84.00
20504;DHT22;10410;51.046;6.980;2023-07-16T20:08:31;22.70;84.30
20504;DHT22;10410;51.046;6.980;2023-07-16T20:15:31;22.60;84.40
20504;DHT22;10410;51.046;6.980;2023-07-16T20:22:31;22.50;84.60
20504;DHT22;10410;51.046;6.980;2023-07-16T20:29:32;22.50;84.90
20504;DHT22;10410;51.046;6.980;2023-07-16T20:36:32;22.40;85.00
20504;DHT22;10410;51.046;6.980;2023-07-16T20:43:33;22.30;85.20
20504;DHT22;10410;51.046;6.980;2023-07-16T20:50:33;22.30;85.30
20504;DHT22;10410;51.046;6.980;2023-07-16T20:57:35;22.30;85.60
20504;DHT22;10410;51.046;6.980;2023-07-16T21:04:35;22.20;86.00
20504;DHT22;10410;51.046;6.980;2023-07-16T21:11:35;22.00;87.10
20504;DHT22;10410;51.046;6.980;2023-07-16T21:18:36;21.80;87.80
20504;DHT22;10410;51.046;6.980;2023-07-16T21:25:37;21.70;88.10
20504;DHT22;10410;51.046;6.980;2023-07-16T21:32:37;21.60;88.60
20504;DHT22;10410;51.046;6.980;2023-07-16T21:39:38;21.50;89.10
20504;DHT22;10410;51.046;6.980;2023-07-16T21:46:38;21.50;89.60
20504;DHT22;10410;51.046;6.980;2023-07-16T21:53:38;21.40;89.90
20504;DHT22;10410;51.046;6.980;2023-07-16T22:00:39;21.30;90.20
20504;DHT22;10410;51.046;6.980;2023-07-16T22:07:40;21.20;90.30
20504;DHT22;10410;51.046;6.980;2023-07-16T22:14:42;21.20;90.60
20504;DHT22;10410;51.046;6.980;2023-07-16T22:21:43;21.00;90.80
20504;DHT22;10410;51.046;6.980;2023-07-16T22:28:43;20.90;91.10
20504;DHT22;10410;51.046;6.980;2023-07-16T22:35:43;20.80;91.30
20504;DHT22;10410;51.046;6.980;2023-07-16T22:42:44;20.70;91.90
20504;DHT22;10410;51.046;6.980;2023-07-16T22:49:44;20.60;91.90
20504;DHT22;10410;51.046;6.980;2023-07-16T22:56:45;20.40;92.20
20504;DHT22;10410;51.046;6.980;2023-07-16T23:03:45;20.30;92.40
20504;DHT22;10410;51.046;6.980;2023-07-16T23:10:46;20.20;92.60
20504;DHT22;10410;51.046;6.980;2023-07-16T23:17:46;20.10;92.90
20504;DHT22;10410;51.046;6.980;2023-07-16T23:24:47;20.00;93.10
20504;DHT22;10410;51.046;6.980;2023-07-16T23:31:47;19.80;93.70
20504;DHT22;10410;51.046;6.980;2023-07-16T23:38:48;19.70;93.60
20504;DHT22;10410;51.046;6.980;2023-07-16T23:45:48;19.50;93.90
20504;DHT22;10410;51.046;6.980;2023-07-16T23:52:49;19.30;94.10
20504;DHT22;10410;51.046;6.980;2023-07-16T23:59:51;19.30;94.40
